sensor_id;sensor_type;location;lat;lon;timestamp;temperature;humidity
983;DHT22;480;48.124;11.578;2023-07-31T00:00:20;19.20;99.90
983;DHT22;480;48.124;11.578;2023-07-31T00:02:47;19.30;99.90
983;DHT22;480;48.124;11.578;2023-07-31T00:05:16;19.30;99.90
983;DHT22;480;48.124;11.578;2023-07-31T00:07:43;19.30;99.90
983;DHT22;480;48.124;11.578;2023-07-31T00:10:10;19.30;99.90
983;DHT22;480;48.124;11.578;2023-07-31T00:12:38;19.40;99.90
983;DHT22;480;48.124;11.578;2023-07-31T00:15:07;19.30;99.90
983;DHT22;480;48.124;11.578;2023-07-31T00:17:34;19.30;99.90
983;DHT22;480;48.124;11.578;2023-07-31T00:20:01;19.30;99.90
983;DHT22;480;48.124;11.578;2023-07-31T00:22:29;19.30;99.90
983;DHT22;480;48.124;11.578;2023-07-31T00:24:57;19.30;99.90
983;DHT22;480;48.124;11.578;2023-07-31T00:27:25;19.30;99.90
983;DHT22;480;48.124;11.578;2023-07-31T00:29:52;19.30;99.90
983;DHT22;480;48.124;11.578;2023-07-31T00:32:19;19.30;99.90
983;DHT22;480;48.124;11.578;2023-07-31T00:34:46;19.30;99.90
983;DHT22;480;48.124;11.578;2023-07-31T00:37:13;19.30;99.90
983;DHT22;480;48.124;11.578;2023-07-31T00:39:42;19.30;99.90
983;DHT22;480;48.124;11.578;2023-07-31T00:42:09;19.30;99.90
983;DHT22;480;48.124;11.578;2023-07-31T00:44:36;19.30;99.90
983;DHT22;480;48.124;11.578;2023-07-31T00:47:03;19.20;99.90
983;DHT22;480;48.124;11.578;2023-07-31T00:49:31;19.20;99.90
983;DHT22;480;48.124;11.578;2023-07-31T00:51:58;19.20;99.90
983;DHT22;480;48.124;11.578;2023-07-31T00:54:26;19.20;99.90
983;DHT22;480;48.124;11.578;2023-07-31T00:56:54;19.10;99.90
983;DHT22;480;48.124;11.578;2023-07-31T00:59:21;19.10;99.90
983;DHT22;480;48.124;11.578;2023-07-31T01:01:49;19.10;99.90
983;DHT22;480;48.124;11.578;2023-07-31T01:04:17;19.10;99.90
983;DHT22;480;48.124;11.578;2023-07-31T01:06:48;19.10;99.90
983;DHT22;480;48.124;11.578;2023-07-31T01:09:28;19.10;99.90
983;DHT22;480;48.124;11.578;2023-07-31T01:12:01;19.00;99.90
983;DHT22;480;48.124;11.578;2023-07-31T01:14:29;19.10;99.90
983;DHT22;480;48.124;11.578;2023-07-31T01:16:56;19.00;99.90
983;DHT22;480;48.124;11.578;2023-07-31T01:19:24;18.90;99.90
983;DHT22;480;48.124;11.578;2023-07-31T01:22:12;18.90;99.90
983;DHT22;480;48.124;11.578;2023-07-31T01:24:53;18.90;99.90
983;DHT22;480;48.124;11.578;2023-07-31T01:27:25;18.80;99.90
983;DHT22;480;48.124;11.578;2023-07-31T01:30:00;18.80;99.90
983;DHT22;480;48.124;11.578;2023-07-31T01:32:28;18.90;99.90
983;DHT22;480;48.124;11.578;2023-07-31T01:34:57;18.70;99.90
983;DHT22;480;48.124;11.578;2023-07-31T01:37:28;18.70;99.90
983;DHT22;480;48.124;11.578;2023-07-31T01:39:55;18.80;99.90
983;DHT22;480;48.124;11.578;2023-07-31T01:42:24;18.90;99.90
983;DHT22;480;48.124;11.578;2023-07-31T01:44:51;18.80;99.90
983;DHT22;480;48.124;11.578;2023-07-31T01:47:18;18.80;99.90
983;DHT22;480;48.124;11.578;2023-07-31T01:49:46;18.80;99.90
983;DHT22;480;48.124;11.578;2023-07-31T01:52:13;18.80;99.90
983;DHT22;480;48.124;11.578;2023-07-31T01:54:40;18.90;99.90
983;DHT22;480;48.124;11.578;2023-07-31T01:57:07;18.90;99.90
983;DHT22;480;48.124;11.578;2023-07-31T01:59:36;18.80;99.90
983;DHT22;480;48.124;11.578;2023-07-31T02:02:03;18.70;99.90
983;DHT22;480;48.124;11.578;2023-07-31T02:04:30;18.50;99.90
983;DHT22;480;48.124;11.578;2023-07-31T02:06:58;18.60;99.90
983;DHT22;480;48.124;11.578;2023-07-31T02:09:25;18.60;99.90
983;DHT22;480;48.124;11.578;2023-07-31T02:11:52;18.70;99.90
983;DHT22;480;48.124;11.578;2023-07-31T02:14:19;18.70;99.90
983;DHT22;480;48.124;11.578;2023-07-31T02:16:48;18.80;99.90
983;DHT22;480;48.124;11.578;2023-07-31T02:19:15;18.80;99.90
983;DHT22;480;48.124;11.578;2023-07-31T02:21:42;18.90;99.90
983;DHT22;480;48.124;11.578;2023-07-31T02:24:09;18.70;99.90
983;DHT22;480;48.124;11.578;2023-07-31T02:26:36;18.70;99.90
983;DHT22;480;48.124;11.578;2023-07-31T02:29:03;18.60;99.90
983;DHT22;480;48.124;11.578;2023-07-31T02:31:30;18.70;99.90
983;DHT22;480;48.124;11.578;2023-07-31T02:33:59;18.70;99.90
983;DHT22;480;48.124;11.578;2023-07-31T02:36:26;18.50;99.90
983;DHT22;480;48.124;11.578;2023-07-31T02:38:53;18.60;99.90
983;DHT22;480;48.124;11.578;2023-07-31T02:41:21;18.80;99.90
983;DHT22;480;48.124;11.578;2023-07-31T02:43:47;18.70;99.90
983;DHT22;480;48.124;11.578;2023-07-31T02:46:14;18.70;99.90
983;DHT22;480;48.124;11.578;2023-07-31T02:48:41;18.80;99.90
983;DHT22;480;48.124;11.578;2023-07-31T02:51:10;18.70;99.90
983;DHT22;480;48.124;11.578;2023-07-31T02:53:37;18.80;99.90
983;DHT22;480;48.124;11.578;2023-07-31T02:56:04;18.80;99.90
983;DHT22;480;48.124;11.578;2023-07-31T02:58:31;18.70;99.90
983;DHT22;480;48.124;11.578;2023-07-31T03:00:58;18.80;99.90
983;DHT22;480;48.124;11.578;2023-07-31T03:03:26;18.80;99.90
983;DHT22;480;48.124;11.578;2023-07-31T03:05:53;18.80;99.90
983;DHT22;480;48.124;11.578;2023-07-31T03:08:22;18.70;99.90
983;DHT22;480;48.124;11.578;2023-07-31T03:10:48;18.70;99.90
983;DHT22;480;48.124;11.578;2023-07-31T03:13:15;18.60;99.90
983;DHT22;480;48.124;11.578;2023-07-31T03:15:42;18.70;99.90
983;DHT22;480;48.124;11.578;2023-07-31T03:18:10;18.70;99.90
983;DHT22;480;48.124;11.578;2023-07-31T03:20:37;18.70;99.90
983;DHT22;480;48.124;11.578;2023-07-31T03:23:04;18.60;99.90
983;DHT22;480;48.124;11.578;2023-07-31T03:25:32;18.50;99.90
983;DHT22;480;48.124;11.578;2023-07-31T03:27:59;18.50;99.90
983;DHT22;480;48.124;11.578;2023-07-31T03:30:27;18.60;99.90
983;DHT22;480;48.124;11.578;2023-07-31T03:32:54;18.50;99.90
983;DHT22;480;48.124;11.578;2023-07-31T03:35:21;18.50;99.90
983;DHT22;480;48.124;11.578;2023-07-31T03:37:48;18.40;99.90
983;DHT22;480;48.124;11.578;2023-07-31T03:40:15;18.30;99.90
983;DHT22;480;48.124;11.578;2023-07-31T03:42:43;18.30;99.90
983;DHT22;480;48.124;11.578;2023-07-31T03:45:10;18.30;99.90
983;DHT22;480;48.124;11.578;2023-07-31T03:47:37;18.30;99.90
983;DHT22;480;48.124;11.578;2023-07-31T03:50:06;18.30;99.90
983;DHT22;480;48.124;11.578;2023-07-31T03:52:33;18.30;99.90
983;DHT22;480;48.124;11.578;2023-07-31T03:55:00;18.20;99.90
983;DHT22;480;48.124;11.578;2023-07-31T03:57:27;18.10;99.90
983;DHT22;480;48.124;11.578;2023-07-31T03:59:55;18.10;99.90
983;DHT22;480;48.124;11.578;2023-07-31T04:02:22;18.10;99.90
983;DHT22;480;48.124;11.578;2023-07-31T04:04:49;18.00;99.90
983;DHT22;480;48.124;11.578;2023-07-31T04:07:16;18.00;99.90
983;DHT22;480;48.124;11.578;2023-07-31T04:09:43;18.00;99.90
983;DHT22;480;48.124;11.578;2023-07-31T04:12:10;18.00;99.90
983;DHT22;480;48.124;11.578;2023-07-31T04:14:37;18.00;99.90
983;DHT22;480;48.124;11.578;2023-07-31T04:17:06;17.90;99.90
983;DHT22;480;48.124;11.578;2023-07-31T04:19:33;18.00;99.90
983;DHT22;480;48.124;11.578;2023-07-31T04:22:00;17.90;99.90
983;DHT22;480;48.124;11.578;2023-07-31T04:24:27;17.70;99.90
983;DHT22;480;48.124;11.578;2023-07-31T04:26:54;17.80;99.90
983;DHT22;480;48.124;11.578;2023-07-31T04:29:21;17.80;99.90
983;DHT22;480;48.124;11.578;2023-07-31T04:31:48;17.60;99.90
983;DHT22;480;48.124;11.578;2023-07-31T04:34:17;17.60;99.90
983;DHT22;480;48.124;11.578;2023-07-31T04:36:44;17.70;99.90
983;DHT22;480;48.124;11.578;2023-07-31T04:39:11;17.70;99.90
983;DHT22;480;48.124;11.578;2023-07-31T04:41:38;17.80;99.90
983;DHT22;480;48.124;11.578;2023-07-31T04:44:05;17.80;99.90
983;DHT22;480;48.124;11.578;2023-07-31T04:46:32;17.90;99.90
983;DHT22;480;48.124;11.578;2023-07-31T04:48:59;18.00;99.90
983;DHT22;480;48.124;11.578;2023-07-31T04:51:27;17.90;99.90
983;DHT22;480;48.124;11.578;2023-07-31T04:53:54;17.90;99.90
983;DHT22;480;48.124;11.578;2023-07-31T04:56:21;17.90;99.90
983;DHT22;480;48.124;11.578;2023-07-31T04:58:48;17.80;99.90
983;DHT22;480;48.124;11.578;2023-07-31T05:01:15;17.80;99.90
983;DHT22;480;48.124;11.578;2023-07-31T05:03:42;17.70;99.90
983;DHT22;480;48.124;11.578;2023-07-31T05:06:09;17.60;99.90
983;DHT22;480;48.124;11.578;2023-07-31T05:08:39;17.50;99.90
983;DHT22;480;48.124;11.578;2023-07-31T05:11:06;17.60;99.90
983;DHT22;480;48.124;11.578;2023-07-31T05:13:33;17.50;99.90
983;DHT22;480;48.124;11.578;2023-07-31T05:16:00;17.60;99.90
983;DHT22;480;48.124;11.578;2023-07-31T05:18:27;17.60;99.90
983;DHT22;480;48.124;11.578;2023-07-31T05:20:54;17.60;99.90
983;DHT22;480;48.124;11.578;2023-07-31T05:23:21;17.70;99.90
983;DHT22;480;48.124;11.578;2023-07-31T05:25:50;17.70;99.90
983;DHT22;480;48.124;11.578;2023-07-31T05:28:17;17.80;99.90
983;DHT22;480;48.124;11.578;2023-07-31T05:30:44;17.70;99.90
983;DHT22;480;48.124;11.578;2023-07-31T05:33:11;17.70;99.90
983;DHT22;480;48.124;11.578;2023-07-31T05:35:38;17.70;99.90
983;DHT22;480;48.124;11.578;2023-07-31T05:38:05;17.90;99.90
983;DHT22;480;48.124;11.578;2023-07-31T05:40:32;18.00;99.90
983;DHT22;480;48.124;11.578;2023-07-31T05:43:03;18.20;99.90
983;DHT22;480;48.124;11.578;2023-07-31T05:45:32;18.30;99.90
983;DHT22;480;48.124;11.578;2023-07-31T05:47:59;18.50;99.90
983;DHT22;480;48.124;11.578;2023-07-31T05:50:26;18.60;99.90
983;DHT22;480;48.124;11.578;2023-07-31T05:52:53;18.60;99.90
983;DHT22;480;48.124;11.578;2023-07-31T05:55:20;18.60;99.90
983;DHT22;480;48.124;11.578;2023-07-31T05:57:47;18.80;99.90
983;DHT22;480;48.124;11.578;2023-07-31T06:00:17;18.90;99.90
983;DHT22;480;48.124;11.578;2023-07-31T06:02:44;18.90;99.90
983;DHT22;480;48.124;11.578;2023-07-31T06:05:11;18.90;99.90
983;DHT22;480;48.124;11.578;2023-07-31T06:07:38;18.80;99.90
983;DHT22;480;48.124;11.578;2023-07-31T06:10:06;18.80;99.90
983;DHT22;480;48.124;11.578;2023-07-31T06:12:35;18.90;99.90
983;DHT22;480;48.124;11.578;2023-07-31T06:15:03;19.00;99.90
983;DHT22;480;48.124;11.578;2023-07-31T06:17:31;19.10;99.90
983;DHT22;480;48.124;11.578;2023-07-31T06:19:58;19.30;99.90
983;DHT22;480;48.124;11.578;2023-07-31T06:22:25;19.40;99.90
983;DHT22;480;48.124;11.578;2023-07-31T06:24:54;19.40;99.90
983;DHT22;480;48.124;11.578;2023-07-31T06:27:21;19.50;99.90
983;DHT22;480;48.124;11.578;2023-07-31T06:29:48;19.60;99.90
983;DHT22;480;48.124;11.578;2023-07-31T06:32:15;19.50;99.90
983;DHT22;480;48.124;11.578;2023-07-31T06:34:43;19.50;99.90
983;DHT22;480;48.124;11.578;2023-07-31T06:37:10;19.40;99.90
983;DHT22;480;48.124;11.578;2023-07-31T06:39:37;19.40;99.90
983;DHT22;480;48.124;11.578;2023-07-31T06:42:04;19.40;99.90
983;DHT22;480;48.124;11.578;2023-07-31T06:44:32;19.50;99.90
983;DHT22;480;48.124;11.578;2023-07-31T06:46:58;19.40;99.90
983;DHT22;480;48.124;11.578;2023-07-31T06:49:25;19.40;99.90
983;DHT22;480;48.124;11.578;2023-07-31T06:51:54;19.40;99.90
983;DHT22;480;48.124;11.578;2023-07-31T06:54:21;19.50;99.90
983;DHT22;480;48.124;11.578;2023-07-31T06:56:48;19.50;99.90
983;DHT22;480;48.124;11.578;2023-07-31T06:59:15;19.50;99.90
983;DHT22;480;48.124;11.578;2023-07-31T07:01:42;19.50;99.90
983;DHT22;480;48.124;11.578;2023-07-31T07:04:09;19.60;99.90
983;DHT22;480;48.124;11.578;2023-07-31T07:06:36;19.70;99.90
983;DHT22;480;48.124;11.578;2023-07-31T07:09:07;19.70;99.90
983;DHT22;480;48.124;11.578;2023-07-31T07:11:34;19.60;99.90
983;DHT22;480;48.124;11.578;2023-07-31T07:14:03;19.70;99.90
983;DHT22;480;48.124;11.578;2023-07-31T07:16:30;19.60;99.90
983;DHT22;480;48.124;11.578;2023-07-31T07:18:58;19.70;99.90
983;DHT22;480;48.124;11.578;2023-07-31T07:21:24;19.70;99.90
983;DHT22;480;48.124;11.578;2023-07-31T07:23:51;19.90;99.90
983;DHT22;480;48.124;11.578;2023-07-31T07:26:20;20.00;99.90
983;DHT22;480;48.124;11.578;2023-07-31T07:28:47;20.10;99.90
983;DHT22;480;48.124;11.578;2023-07-31T07:31:14;20.20;99.90
983;DHT22;480;48.124;11.578;2023-07-31T07:33:41;20.30;99.90
983;DHT22;480;48.124;11.578;2023-07-31T07:36:08;20.40;99.90
983;DHT22;480;48.124;11.578;2023-07-31T07:38:35;20.60;99.90
983;DHT22;480;48.124;11.578;2023-07-31T07:41:04;20.60;99.90
983;DHT22;480;48.124;11.578;2023-07-31T07:43:33;20.70;99.90
983;DHT22;480;48.124;11.578;2023-07-31T07:46:00;20.60;99.90
983;DHT22;480;48.124;11.578;2023-07-31T07:48:27;20.60;99.90
983;DHT22;480;48.124;11.578;2023-07-31T07:50:54;20.60;99.90
983;DHT22;480;48.124;11.578;2023-07-31T07:53:21;20.60;99.90
983;DHT22;480;48.124;11.578;2023-07-31T07:55:48;20.60;99.90
983;DHT22;480;48.124;11.578;2023-07-31T07:58:15;20.90;99.90
983;DHT22;480;48.124;11.578;2023-07-31T08:00:48;20.90;99.90
983;DHT22;480;48.124;11.578;2023-07-31T08:03:16;21.00;99.90
983;DHT22;480;48.124;11.578;2023-07-31T08:05:45;21.00;99.90
983;DHT22;480;48.124;11.578;2023-07-31T08:08:14;20.90;99.90
983;DHT22;480;48.124;11.578;2023-07-31T08:10:42;21.10;99.90
983;DHT22;480;48.124;11.578;2023-07-31T08:13:12;21.10;99.90
983;DHT22;480;48.124;11.578;2023-07-31T08:15:41;21.00;99.90
983;DHT22;480;48.124;11.578;2023-07-31T08:18:09;21.10;99.90
983;DHT22;480;48.124;11.578;2023-07-31T08:20:37;21.20;99.90
983;DHT22;480;48.124;11.578;2023-07-31T08:23:04;21.20;99.90
983;DHT22;480;48.124;11.578;2023-07-31T08:25:33;21.30;99.90
983;DHT22;480;48.124;11.578;2023-07-31T08:28:01;21.30;99.90
983;DHT22;480;48.124;11.578;2023-07-31T08:30:28;21.20;99.90
983;DHT22;480;48.124;11.578;2023-07-31T08:32:55;21.10;99.90
983;DHT22;480;48.124;11.578;2023-07-31T08:35:24;21.30;99.90
983;DHT22;480;48.124;11.578;2023-07-31T08:37:51;21.50;99.90
983;DHT22;480;48.124;11.578;2023-07-31T08:40:18;21.50;99.90
983;DHT22;480;48.124;11.578;2023-07-31T08:42:48;21.30;99.90
983;DHT22;480;48.124;11.578;2023-07-31T08:45:16;21.30;99.90
983;DHT22;480;48.124;11.578;2023-07-31T08:47:45;21.30;99.90
983;DHT22;480;48.124;11.578;2023-07-31T08:50:13;21.40;99.90
983;DHT22;480;48.124;11.578;2023-07-31T08:52:42;21.50;99.90
983;DHT22;480;48.124;11.578;2023-07-31T08:55:09;21.50;99.90
983;DHT22;480;48.124;11.578;2023-07-31T08:57:37;21.40;99.90
983;DHT22;480;48.124;11.578;2023-07-31T09:00:06;21.10;99.90
983;DHT22;480;48.124;11.578;2023-07-31T09:02:38;21.10;99.90
983;DHT22;480;48.124;11.578;2023-07-31T09:05:08;21.10;99.90
983;DHT22;480;48.124;11.578;2023-07-31T09:07:35;21.10;99.90
983;DHT22;480;48.124;11.578;2023-07-31T09:10:05;21.10;99.90
983;DHT22;480;48.124;11.578;2023-07-31T09:12:32;21.20;99.90
983;DHT22;480;48.124;11.578;2023-07-31T09:14:59;21.20;99.90
983;DHT22;480;48.124;11.578;2023-07-31T09:17:30;21.20;99.90
983;DHT22;480;48.124;11.578;2023-07-31T09:19:57;21.20;99.90
983;DHT22;480;48.124;11.578;2023-07-31T09:22:35;21.20;99.90
983;DHT22;480;48.124;11.578;2023-07-31T09:25:16;21.30;99.90
983;DHT22;480;48.124;11.578;2023-07-31T09:27:48;21.50;99.90
983;DHT22;480;48.124;11.578;2023-07-31T09:30:15;21.60;99.90
983;DHT22;480;48.124;11.578;2023-07-31T09:32:43;21.70;99.90
983;DHT22;480;48.124;11.578;2023-07-31T09:35:14;21.70;99.90
983;DHT22;480;48.124;11.578;2023-07-31T09:37:48;21.80;99.90
983;DHT22;480;48.124;11.578;2023-07-31T09:40:27;21.80;99.90
983;DHT22;480;48.124;11.578;2023-07-31T09:42:56;21.80;99.90
983;DHT22;480;48.124;11.578;2023-07-31T09:45:24;21.90;99.90
983;DHT22;480;48.124;11.578;2023-07-31T09:47:51;22.00;99.90
983;DHT22;480;48.124;11.578;2023-07-31T09:50:20;22.10;99.90
983;DHT22;480;48.124;11.578;2023-07-31T09:52:47;22.10;99.90
983;DHT22;480;48.124;11.578;2023-07-31T09:55:14;22.20;99.90
983;DHT22;480;48.124;11.578;2023-07-31T09:57:45;22.30;99.90
983;DHT22;480;48.124;11.578;2023-07-31T10:00:14;22.50;99.90
983;DHT22;480;48.124;11.578;2023-07-31T10:02:42;22.60;99.90
983;DHT22;480;48.124;11.578;2023-07-31T10:05:13;22.70;99.90
983;DHT22;480;48.124;11.578;2023-07-31T10:07:43;22.80;99.90
983;DHT22;480;48.124;11.578;2023-07-31T10:10:13;22.70;99.90
983;DHT22;480;48.124;11.578;2023-07-31T10:12:44;23.00;99.90
983;DHT22;480;48.124;11.578;2023-07-31T10:15:13;23.00;99.90
983;DHT22;480;48.124;11.578;2023-07-31T10:17:41;22.80;99.90
983;DHT22;480;48.124;11.578;2023-07-31T10:20:10;22.90;99.90
983;DHT22;480;48.124;11.578;2023-07-31T10:22:38;22.90;99.90
983;DHT22;480;48.124;11.578;2023-07-31T10:25:08;23.00;99.90
983;DHT22;480;48.124;11.578;2023-07-31T10:27:35;23.00;99.90
983;DHT22;480;48.124;11.578;2023-07-31T10:30:06;23.00;99.90
983;DHT22;480;48.124;11.578;2023-07-31T10:32:35;23.20;99.90
983;DHT22;480;48.124;11.578;2023-07-31T10:35:03;23.20;99.90
983;DHT22;480;48.124;11.578;2023-07-31T10:37:37;23.30;99.90
983;DHT22;480;48.124;11.578;2023-07-31T10:40:05;23.40;99.90
983;DHT22;480;48.124;11.578;2023-07-31T10:42:34;23.40;99.90
983;DHT22;480;48.124;11.578;2023-07-31T10:45:05;23.30;99.90
983;DHT22;480;48.124;11.578;2023-07-31T10:47:37;23.10;99.90
983;DHT22;480;48.124;11.578;2023-07-31T10:50:19;23.20;99.90
983;DHT22;480;48.124;11.578;2023-07-31T10:52:48;23.10;99.90
983;DHT22;480;48.124;11.578;2023-07-31T10:55:23;23.00;99.90
983;DHT22;480;48.124;11.578;2023-07-31T10:57:51;22.90;99.90
983;DHT22;480;48.124;11.578;2023-07-31T11:00:24;22.80;99.90
983;DHT22;480;48.124;11.578;2023-07-31T11:03:03;22.70;99.90
983;DHT22;480;48.124;11.578;2023-07-31T11:06:00;22.70;99.90
983;DHT22;480;48.124;11.578;2023-07-31T11:08:30;23.10;99.90
983;DHT22;480;48.124;11.578;2023-07-31T11:11:08;23.50;99.90
983;DHT22;480;48.124;11.578;2023-07-31T11:13:41;23.80;99.90
983;DHT22;480;48.124;11.578;2023-07-31T11:16:11;23.70;99.90
983;DHT22;480;48.124;11.578;2023-07-31T11:18:39;23.50;99.90
983;DHT22;480;48.124;11.578;2023-07-31T11:21:07;23.40;99.90
983;DHT22;480;48.124;11.578;2023-07-31T11:23:36;23.60;99.90
983;DHT22;480;48.124;11.578;2023-07-31T11:26:05;23.80;99.90
983;DHT22;480;48.124;11.578;2023-07-31T11:28:32;24.10;99.90
983;DHT22;480;48.124;11.578;2023-07-31T11:31:01;24.30;99.90
983;DHT22;480;48.124;11.578;2023-07-31T11:33:29;24.60;99.90
983;DHT22;480;48.124;11.578;2023-07-31T11:35:57;24.70;99.90
983;DHT22;480;48.124;11.578;2023-07-31T11:38:25;24.90;99.90
983;DHT22;480;48.124;11.578;2023-07-31T11:40:52;25.00;99.90
983;DHT22;480;48.124;11.578;2023-07-31T11:43:20;25.20;99.90
983;DHT22;480;48.124;11.578;2023-07-31T11:45:50;25.30;99.90
983;DHT22;480;48.124;11.578;2023-07-31T11:48:21;25.20;99.90
983;DHT22;480;48.124;11.578;2023-07-31T11:50:51;25.40;99.90
983;DHT22;480;48.124;11.578;2023-07-31T11:53:22;25.50;99.90
983;DHT22;480;48.124;11.578;2023-07-31T11:55:51;25.40;99.90
983;DHT22;480;48.124;11.578;2023-07-31T11:58:18;25.60;99.90
983;DHT22;480;48.124;11.578;2023-07-31T12:00:46;25.70;99.90
983;DHT22;480;48.124;11.578;2023-07-31T12:03:14;25.70;99.90
983;DHT22;480;48.124;11.578;2023-07-31T12:05:42;26.10;99.90
983;DHT22;480;48.124;11.578;2023-07-31T12:08:11;26.50;99.90
983;DHT22;480;48.124;11.578;2023-07-31T12:10:38;26.40;99.90
983;DHT22;480;48.124;11.578;2023-07-31T12:13:08;26.70;99.90
983;DHT22;480;48.124;11.578;2023-07-31T12:15:40;26.50;99.90
983;DHT22;480;48.124;11.578;2023-07-31T12:18:09;26.30;99.90
983;DHT22;480;48.124;11.578;2023-07-31T12:20:47;26.50;99.90
983;DHT22;480;48.124;11.578;2023-07-31T12:23:17;26.80;99.90
983;DHT22;480;48.124;11.578;2023-07-31T12:25:44;26.60;99.90
983;DHT22;480;48.124;11.578;2023-07-31T12:28:11;26.90;99.90
983;DHT22;480;48.124;11.578;2023-07-31T12:30:40;27.20;99.90
983;DHT22;480;48.124;11.578;2023-07-31T12:33:13;27.20;99.70
983;DHT22;480;48.124;11.578;2023-07-31T12:35:44;27.70;99.40
983;DHT22;480;48.124;11.578;2023-07-31T12:38:12;27.50;99.90
983;DHT22;480;48.124;11.578;2023-07-31T12:40:41;27.60;99.90
983;DHT22;480;48.124;11.578;2023-07-31T12:43:08;27.30;99.90
983;DHT22;480;48.124;11.578;2023-07-31T12:45:36;27.60;99.80
983;DHT22;480;48.124;11.578;2023-07-31T12:48:03;27.40;99.30
983;DHT22;480;48.124;11.578;2023-07-31T12:50:30;27.20;99.90
983;DHT22;480;48.124;11.578;2023-07-31T12:52:57;27.10;99.90
983;DHT22;480;48.124;11.578;2023-07-31T12:55:24;26.80;99.90
983;DHT22;480;48.124;11.578;2023-07-31T12:57:53;26.50;99.90
983;DHT22;480;48.124;11.578;2023-07-31T13:00:21;26.20;99.90
983;DHT22;480;48.124;11.578;2023-07-31T13:02:48;26.40;99.90
983;DHT22;480;48.124;11.578;2023-07-31T13:05:15;26.60;99.90
983;DHT22;480;48.124;11.578;2023-07-31T13:07:42;26.70;99.40
983;DHT22;480;48.124;11.578;2023-07-31T13:10:09;26.40;99.90
983;DHT22;480;48.124;11.578;2023-07-31T13:12:36;26.40;99.90
983;DHT22;480;48.124;11.578;2023-07-31T13:15:08;26.70;99.90
983;DHT22;480;48.124;11.578;2023-07-31T13:17:36;26.40;99.90
983;DHT22;480;48.124;11.578;2023-07-31T13:20:04;26.30;99.80
983;DHT22;480;48.124;11.578;2023-07-31T13:22:31;26.00;99.90
983;DHT22;480;48.124;11.578;2023-07-31T13:24:58;25.70;99.90
983;DHT22;480;48.124;11.578;2023-07-31T13:27:27;25.80;99.90
983;DHT22;480;48.124;11.578;2023-07-31T13:29:54;26.10;99.90
983;DHT22;480;48.124;11.578;2023-07-31T13:32:22;26.10;99.70
983;DHT22;480;48.124;11.578;2023-07-31T13:34:49;26.00;99.90
983;DHT22;480;48.124;11.578;2023-07-31T13:37:16;25.70;99.90
983;DHT22;480;48.124;11.578;2023-07-31T13:39:43;25.40;99.90
983;DHT22;480;48.124;11.578;2023-07-31T13:42:10;25.30;99.90
983;DHT22;480;48.124;11.578;2023-07-31T13:44:38;25.30;99.90
983;DHT22;480;48.124;11.578;2023-07-31T13:47:05;25.80;99.60
983;DHT22;480;48.124;11.578;2023-07-31T13:49:34;26.10;99.80
983;DHT22;480;48.124;11.578;2023-07-31T13:52:03;26.50;99.90
983;DHT22;480;48.124;11.578;2023-07-31T13:54:30;27.10;99.90
983;DHT22;480;48.124;11.578;2023-07-31T13:56:57;27.40;99.20
983;DHT22;480;48.124;11.578;2023-07-31T13:59:24;27.70;99.60
983;DHT22;480;48.124;11.578;2023-07-31T14:01:51;27.80;99.90
983;DHT22;480;48.124;11.578;2023-07-31T14:04:18;27.70;98.90
983;DHT22;480;48.124;11.578;2023-07-31T14:06:47;27.50;99.10
983;DHT22;480;48.124;11.578;2023-07-31T14:09:16;27.30;97.80
983;DHT22;480;48.124;11.578;2023-07-31T14:11:43;27.60;99.40
983;DHT22;480;48.124;11.578;2023-07-31T14:14:10;28.00;99.10
983;DHT22;480;48.124;11.578;2023-07-31T14:16:38;28.30;98.80
983;DHT22;480;48.124;11.578;2023-07-31T14:19:05;28.40;98.50
983;DHT22;480;48.124;11.578;2023-07-31T14:21:33;28.00;96.70
983;DHT22;480;48.124;11.578;2023-07-31T14:24:01;27.80;97.10
983;DHT22;480;48.124;11.578;2023-07-31T14:26:28;27.20;96.50
983;DHT22;480;48.124;11.578;2023-07-31T14:28:55;27.10;96.40
983;DHT22;480;48.124;11.578;2023-07-31T14:31:23;26.70;97.70
983;DHT22;480;48.124;11.578;2023-07-31T14:33:50;26.60;98.10
983;DHT22;480;48.124;11.578;2023-07-31T14:36:17;26.20;99.60
983;DHT22;480;48.124;11.578;2023-07-31T14:38:44;26.20;99.00
983;DHT22;480;48.124;11.578;2023-07-31T14:41:13;26.60;98.50
983;DHT22;480;48.124;11.578;2023-07-31T14:43:40;26.80;98.20
983;DHT22;480;48.124;11.578;2023-07-31T14:46:07;27.00;99.10
983;DHT22;480;48.124;11.578;2023-07-31T14:48:34;27.10;97.90
983;DHT22;480;48.124;11.578;2023-07-31T14:51:00;27.20;97.80
983;DHT22;480;48.124;11.578;2023-07-31T14:53:28;27.50;97.60
983;DHT22;480;48.124;11.578;2023-07-31T14:55:55;27.80;98.00
983;DHT22;480;48.124;11.578;2023-07-31T14:58:23;27.90;99.00
983;DHT22;480;48.124;11.578;2023-07-31T15:00:50;27.50;97.70
983;DHT22;480;48.124;11.578;2023-07-31T15:03:17;27.20;97.20
983;DHT22;480;48.124;11.578;2023-07-31T15:05:44;26.90;97.70
983;DHT22;480;48.124;11.578;2023-07-31T15:08:11;26.70;97.10
983;DHT22;480;48.124;11.578;2023-07-31T15:10:38;26.30;99.30
983;DHT22;480;48.124;11.578;2023-07-31T15:13:06;26.00;98.70
983;DHT22;480;48.124;11.578;2023-07-31T15:15:34;25.70;99.10
983;DHT22;480;48.124;11.578;2023-07-31T15:18:01;25.60;99.50
983;DHT22;480;48.124;11.578;2023-07-31T15:20:28;25.50;99.90
983;DHT22;480;48.124;11.578;2023-07-31T15:22:56;25.50;99.60
983;DHT22;480;48.124;11.578;2023-07-31T15:25:23;25.50;99.90
983;DHT22;480;48.124;11.578;2023-07-31T15:27:50;25.60;99.90
983;DHT22;480;48.124;11.578;2023-07-31T15:30:17;25.80;99.90
983;DHT22;480;48.124;11.578;2023-07-31T15:32:45;25.70;99.90
983;DHT22;480;48.124;11.578;2023-07-31T15:35:14;25.50;99.50
983;DHT22;480;48.124;11.578;2023-07-31T15:37:41;25.40;99.90
983;DHT22;480;48.124;11.578;2023-07-31T15:40:09;25.40;99.90
983;DHT22;480;48.124;11.578;2023-07-31T15:42:36;25.30;99.90
983;DHT22;480;48.124;11.578;2023-07-31T15:45:06;25.10;99.90
983;DHT22;480;48.124;11.578;2023-07-31T15:47:34;24.90;99.90
983;DHT22;480;48.124;11.578;2023-07-31T15:50:02;24.70;99.90
983;DHT22;480;48.124;11.578;2023-07-31T15:52:30;24.60;99.90
983;DHT22;480;48.124;11.578;2023-07-31T15:54:57;24.70;99.90
983;DHT22;480;48.124;11.578;2023-07-31T15:57:24;24.80;99.90
983;DHT22;480;48.124;11.578;2023-07-31T15:59:51;24.80;99.90
983;DHT22;480;48.124;11.578;2023-07-31T16:02:18;24.60;99.90
983;DHT22;480;48.124;11.578;2023-07-31T16:04:45;24.50;99.90
983;DHT22;480;48.124;11.578;2023-07-31T16:07:14;24.50;99.90
983;DHT22;480;48.124;11.578;2023-07-31T16:09:41;24.30;99.90
983;DHT22;480;48.124;11.578;2023-07-31T16:12:08;24.40;99.90
983;DHT22;480;48.124;11.578;2023-07-31T16:14:36;24.40;99.90
983;DHT22;480;48.124;11.578;2023-07-31T16:17:03;24.40;99.90
983;DHT22;480;48.124;11.578;2023-07-31T16:19:30;24.30;99.90
983;DHT22;480;48.124;11.578;2023-07-31T16:21:58;24.20;99.90